sensor_id;sensor_type;location;lat;lon;timestamp;pressure;altitude;pressure_sealevel;temperature;humidity
68230;BME280;55048;52.220;5.160;2023-01-26T00:00:03;102421.03;;;1.72;86.91
68230;BME280;55048;52.220;5.160;2023-01-26T00:02:30;102399.25;;;1.62;86.49
68230;BME280;55048;52.220;5.160;2023-01-26T00:04:55;102369.19;;;1.37;86.65
68230;BME280;55048;52.220;5.160;2023-01-26T00:07:21;102447.81;;;1.95;86.64
68230;BME280;55048;52.220;5.160;2023-01-26T00:09:46;102352.19;;;1.12;87.22
68230;BME280;55048;52.220;5.160;2023-01-26T00:12:11;102166.31;;;0.13;86.68
68230;BME280;55048;52.220;5.160;2023-01-26T00:14:37;102438.84;;;1.88;87.27
68230;BME280;55048;52.220;5.160;2023-01-26T00:17:18;102398.44;;;1.51;87.15
68230;BME280;55048;52.220;5.160;2023-01-26T00:19:53;102346.81;;;1.33;87.10
68230;BME280;55048;52.220;5.160;2023-01-26T00:22:20;102373.19;;;1.41;86.86
68230;BME280;55048;52.220;5.160;2023-01-26T00:24:45;102340.47;;;1.25;86.99
68230;BME280;55048;52.220;5.160;2023-01-26T00:27:11;102424.06;;;1.77;86.86
68230;BME280;55048;52.220;5.160;2023-01-26T00:29:36;102407.81;;;1.73;86.78
68230;BME280;55048;52.220;5.160;2023-01-26T00:32:01;102409.19;;;1.77;87.01
68230;BME280;55048;52.220;5.160;2023-01-26T00:34:27;102380.06;;;1.61;86.65
68230;BME280;55048;52.220;5.160;2023-01-26T00:36:52;102370.13;;;1.65;87.03
68230;BME280;55048;52.220;5.160;2023-01-26T00:39:18;102406.38;;;1.98;86.90
68230;BME280;55048;52.220;5.160;2023-01-26T00:41:43;102384.22;;;1.73;86.51
68230;BME280;55048;52.220;5.160;2023-01-26T00:44:27;102318.56;;;1.36;87.61
68230;BME280;55048;52.220;5.160;2023-01-26T00:46:52;102250.97;;;1.01;86.58
68230;BME280;55048;52.220;5.160;2023-01-26T00:49:18;102402.25;;;1.86;87.38
68230;BME280;55048;52.220;5.160;2023-01-26T00:51:43;102375.50;;;1.73;86.81
68230;BME280;55048;52.220;5.160;2023-01-26T00:54:08;102401.28;;;1.97;86.61
68230;BME280;55048;52.220;5.160;2023-01-26T00:56:35;102401.28;;;1.97;86.72
68230;BME280;55048;52.220;5.160;2023-01-26T00:59:00;102361.03;;;1.69;86.68
68230;BME280;55048;52.220;5.160;2023-01-26T01:01:26;102112.09;;;0.25;86.52
68230;BME280;55048;52.220;5.160;2023-01-26T01:03:51;102268.22;;;1.23;86.91
68230;BME280;55048;52.220;5.160;2023-01-26T01:06:17;102382.78;;;1.89;87.02
68230;BME280;55048;52.220;5.160;2023-01-26T01:08:42;102383.63;;;1.89;86.76
68230;BME280;55048;52.220;5.160;2023-01-26T01:11:09;102368.56;;;1.91;86.82
68230;BME280;55048;52.220;5.160;2023-01-26T01:13:35;102384.59;;;1.88;86.57
68230;BME280;55048;52.220;5.160;2023-01-26T01:16:10;102306.28;;;1.37;86.61
68230;BME280;55048;52.220;5.160;2023-01-26T01:18:36;102247.13;;;0.95;86.59
68230;BME280;55048;52.220;5.160;2023-01-26T01:21:10;102392.28;;;1.99;86.74
68230;BME280;55048;52.220;5.160;2023-01-26T01:23:36;102376.72;;;1.88;86.82
68230;BME280;55048;52.220;5.160;2023-01-26T01:26:02;102291.22;;;1.29;86.46
68230;BME280;55048;52.220;5.160;2023-01-26T01:28:28;102389.97;;;1.96;86.81
68230;BME280;55048;52.220;5.160;2023-01-26T01:30:53;102326.81;;;1.51;86.95
68230;BME280;55048;52.220;5.160;2023-01-26T01:33:19;102346.78;;;1.62;86.63
68230;BME280;55048;52.220;5.160;2023-01-26T01:35:57;102326.78;;;1.61;86.51
68230;BME280;55048;52.220;5.160;2023-01-26T01:38:24;102370.78;;;1.86;86.38
68230;BME280;55048;52.220;5.160;2023-01-26T01:40:50;102378.50;;;1.97;86.49
68230;BME280;55048;52.220;5.160;2023-01-26T01:43:15;102326.66;;;1.62;86.67
68230;BME280;55048;52.220;5.160;2023-01-26T01:45:45;102390.38;;;2.01;86.70
68230;BME280;55048;52.220;5.160;2023-01-26T01:51:03;102399.63;;;1.96;87.06
68230;BME280;55048;52.220;5.160;2023-01-26T01:53:35;102347.34;;;1.65;86.73
68230;BME280;55048;52.220;5.160;2023-01-26T01:56:08;102294.41;;;1.42;86.75
68230;BME280;55048;52.220;5.160;2023-01-26T01:58:37;102215.44;;;0.89;86.46
68230;BME280;55048;52.220;5.160;2023-01-26T02:01:05;102335.75;;;1.68;86.63
68230;BME280;55048;52.220;5.160;2023-01-26T02:03:32;102383.91;;;1.96;86.67
68230;BME280;55048;52.220;5.160;2023-01-26T02:06:18;102334.50;;;1.62;86.31
68230;BME280;55048;52.220;5.160;2023-01-26T02:08:48;102377.50;;;2.08;86.51
68230;BME280;55048;52.220;5.160;2023-01-26T02:11:39;102387.84;;;2.10;86.50
68230;BME280;55048;52.220;5.160;2023-01-26T02:14:10;102331.16;;;1.79;86.43
68230;BME280;55048;52.220;5.160;2023-01-26T02:16:37;102250.00;;;1.12;86.29
68230;BME280;55048;52.220;5.160;2023-01-26T02:19:08;102285.31;;;1.37;86.15
68230;BME280;55048;52.220;5.160;2023-01-26T02:21:37;102343.88;;;1.74;86.68
68230;BME280;55048;52.220;5.160;2023-01-26T02:24:25;102305.03;;;1.41;86.84
68230;BME280;55048;52.220;5.160;2023-01-26T02:26:53;102348.84;;;1.68;86.75
68230;BME280;55048;52.220;5.160;2023-01-26T02:29:19;102282.38;;;1.40;86.50
68230;BME280;55048;52.220;5.160;2023-01-26T02:31:45;102335.88;;;1.76;86.79
68230;BME280;55048;52.220;5.160;2023-01-26T02:34:11;102363.44;;;1.90;86.65
68230;BME280;55048;52.220;5.160;2023-01-26T02:36:36;102355.03;;;1.96;86.96
68230;BME280;55048;52.220;5.160;2023-01-26T02:41:56;102339.72;;;1.82;86.43
68230;BME280;55048;52.220;5.160;2023-01-26T02:44:41;102341.00;;;1.77;86.55
68230;BME280;55048;52.220;5.160;2023-01-26T02:47:12;102313.69;;;1.61;86.88
68230;BME280;55048;52.220;5.160;2023-01-26T02:49:39;102384.38;;;2.09;86.90
68230;BME280;55048;52.220;5.160;2023-01-26T02:52:22;102357.25;;;1.81;86.09
68230;BME280;55048;52.220;5.160;2023-01-26T02:55:05;102397.41;;;2.01;86.69
68230;BME280;55048;52.220;5.160;2023-01-26T02:57:52;102361.28;;;1.75;86.50
68230;BME280;55048;52.220;5.160;2023-01-26T03:00:23;102391.03;;;2.03;86.69
68230;BME280;55048;52.220;5.160;2023-01-26T03:02:51;102400.44;;;2.06;86.75
68230;BME280;55048;52.220;5.160;2023-01-26T03:05:19;102383.19;;;1.94;86.93
68230;BME280;55048;52.220;5.160;2023-01-26T03:07:44;102305.00;;;1.50;87.12
68230;BME280;55048;52.220;5.160;2023-01-26T03:10:11;102329.56;;;1.59;87.19
68230;BME280;55048;52.220;5.160;2023-01-26T03:12:36;102393.97;;;1.91;87.08
68230;BME280;55048;52.220;5.160;2023-01-26T03:15:03;102284.50;;;1.26;87.19
68230;BME280;55048;52.220;5.160;2023-01-26T03:17:47;102378.91;;;1.93;87.07
68230;BME280;55048;52.220;5.160;2023-01-26T03:20:12;102275.91;;;1.34;86.94
68230;BME280;55048;52.220;5.160;2023-01-26T03:22:57;102188.41;;;0.79;86.56
68230;BME280;55048;52.220;5.160;2023-01-26T03:25:41;102276.34;;;1.30;87.71
68230;BME280;55048;52.220;5.160;2023-01-26T03:28:28;102233.47;;;1.11;86.77
68230;BME280;55048;52.220;5.160;2023-01-26T03:30:55;102319.34;;;1.66;87.45
68230;BME280;55048;52.220;5.160;2023-01-26T03:33:22;102280.59;;;1.50;86.82
68230;BME280;55048;52.220;5.160;2023-01-26T03:35:47;102359.03;;;1.90;86.99
68230;BME280;55048;52.220;5.160;2023-01-26T03:38:13;102360.81;;;1.90;87.22
68230;BME280;55048;52.220;5.160;2023-01-26T03:40:45;102361.66;;;1.90;87.15
68230;BME280;55048;52.220;5.160;2023-01-26T03:43:30;102329.25;;;1.72;87.09
68230;BME280;55048;52.220;5.160;2023-01-26T03:46:14;102363.63;;;1.78;87.70
68230;BME280;55048;52.220;5.160;2023-01-26T03:48:59;102376.88;;;1.87;88.33
68230;BME280;55048;52.220;5.160;2023-01-26T03:51:44;102275.38;;;1.40;87.21
68230;BME280;55048;52.220;5.160;2023-01-26T03:54:28;102389.63;;;2.09;87.26
68230;BME280;55048;52.220;5.160;2023-01-26T03:57:15;102349.78;;;1.86;87.31
68230;BME280;55048;52.220;5.160;2023-01-26T03:59:41;102377.09;;;2.03;86.95
68230;BME280;55048;52.220;5.160;2023-01-26T04:02:11;102390.59;;;2.18;87.48
68230;BME280;55048;52.220;5.160;2023-01-26T04:04:56;102312.25;;;1.76;87.21
68230;BME280;55048;52.220;5.160;2023-01-26T04:07:43;102336.66;;;1.96;86.71
68230;BME280;55048;52.220;5.160;2023-01-26T04:10:28;102372.63;;;2.13;86.96
68230;BME280;55048;52.220;5.160;2023-01-26T04:12:53;102398.72;;;2.24;87.01
68230;BME280;55048;52.220;5.160;2023-01-26T04:15:41;102334.47;;;1.82;87.25
68230;BME280;55048;52.220;5.160;2023-01-26T04:18:25;102287.84;;;1.66;86.53
68230;BME280;55048;52.220;5.160;2023-01-26T04:21:09;102372.91;;;2.20;87.15
68230;BME280;55048;52.220;5.160;2023-01-26T04:23:55;102393.88;;;2.29;86.99
68230;BME280;55048;52.220;5.160;2023-01-26T04:26:29;102393.13;;;2.37;86.83
68230;BME280;55048;52.220;5.160;2023-01-26T04:29:07;102373.31;;;2.25;86.89
68230;BME280;55048;52.220;5.160;2023-01-26T04:31:33;102358.66;;;2.22;86.84
68230;BME280;55048;52.220;5.160;2023-01-26T04:34:00;102389.13;;;2.43;86.81
68230;BME280;55048;52.220;5.160;2023-01-26T04:36:28;102388.97;;;2.44;86.92
68230;BME280;55048;52.220;5.160;2023-01-26T04:38:54;102345.13;;;2.17;87.13
68230;BME280;55048;52.220;5.160;2023-01-26T04:41:21;102207.75;;;1.34;86.95
68230;BME280;55048;52.220;5.160;2023-01-26T04:43:53;102284.38;;;1.75;87.21
68230;BME280;55048;52.220;5.160;2023-01-26T04:46:19;102350.66;;;2.24;87.04
68230;BME280;55048;52.220;5.160;2023-01-26T04:48:44;102308.31;;;1.99;87.08
68230;BME280;55048;52.220;5.160;2023-01-26T04:51:18;102384.94;;;2.50;87.02
68230;BME280;55048;52.220;5.160;2023-01-26T04:53:45;102376.91;;;2.51;86.85
68230;BME280;55048;52.220;5.160;2023-01-26T04:56:26;102339.31;;;2.23;86.99
68230;BME280;55048;52.220;5.160;2023-01-26T04:58:53;102339.19;;;2.25;86.51
68230;BME280;55048;52.220;5.160;2023-01-26T05:01:20;102372.19;;;2.55;86.74
68230;BME280;55048;52.220;5.160;2023-01-26T05:03:46;102306.75;;;2.16;86.61
68230;BME280;55048;52.220;5.160;2023-01-26T05:06:12;102366.81;;;2.57;86.71
68230;BME280;55048;52.220;5.160;2023-01-26T05:08:38;102252.25;;;1.73;86.46
68230;BME280;55048;52.220;5.160;2023-01-26T05:11:04;102263.53;;;1.83;86.84
68230;BME280;55048;52.220;5.160;2023-01-26T05:14:05;102316.66;;;2.22;87.30
68230;BME280;55048;52.220;5.160;2023-01-26T05:16:48;102367.91;;;2.54;87.11
68230;BME280;55048;52.220;5.160;2023-01-26T05:19:20;102369.44;;;2.57;87.08
68230;BME280;55048;52.220;5.160;2023-01-26T05:22:14;102232.75;;;1.75;86.53
68230;BME280;55048;52.220;5.160;2023-01-26T05:24:50;102352.31;;;2.52;86.91
68230;BME280;55048;52.220;5.160;2023-01-26T05:27:24;102360.19;;;2.52;86.45
68230;BME280;55048;52.220;5.160;2023-01-26T05:29:54;102366.22;;;2.63;86.67
68230;BME280;55048;52.220;5.160;2023-01-26T05:32:27;102374.44;;;2.50;86.64
68230;BME280;55048;52.220;5.160;2023-01-26T05:34:54;102375.31;;;2.68;86.48
68230;BME280;55048;52.220;5.160;2023-01-26T05:37:19;102303.91;;;2.27;86.41
68230;BME280;55048;52.220;5.160;2023-01-26T05:39:45;102135.81;;;1.19;86.28
68230;BME280;55048;52.220;5.160;2023-01-26T05:42:12;102373.22;;;2.72;86.74
68230;BME280;55048;52.220;5.160;2023-01-26T05:45:04;102230.25;;;1.84;86.41
68230;BME280;55048;52.220;5.160;2023-01-26T05:47:31;102248.00;;;1.90;86.19
68230;BME280;55048;52.220;5.160;2023-01-26T05:49:56;102377.41;;;2.65;86.45
68230;BME280;55048;52.220;5.160;2023-01-26T05:52:25;102334.94;;;2.04;87.36
68230;BME280;55048;52.220;5.160;2023-01-26T05:54:51;102232.09;;;1.73;87.12
68230;BME280;55048;52.220;5.160;2023-01-26T05:57:17;102375.31;;;2.68;86.87
68230;BME280;55048;52.220;5.160;2023-01-26T05:59:48;102360.72;;;2.56;86.60
68230;BME280;55048;52.220;5.160;2023-01-26T06:02:13;102370.09;;;2.59;86.88
68230;BME280;55048;52.220;5.160;2023-01-26T06:04:42;102362.00;;;2.52;86.79
68230;BME280;55048;52.220;5.160;2023-01-26T06:07:08;102393.41;;;2.71;86.87
68230;BME280;55048;52.220;5.160;2023-01-26T06:09:37;102302.88;;;2.20;86.70
68230;BME280;55048;52.220;5.160;2023-01-26T06:12:16;102389.13;;;2.70;87.08
68230;BME280;55048;52.220;5.160;2023-01-26T06:14:54;102377.72;;;2.62;87.19
68230;BME280;55048;52.220;5.160;2023-01-26T06:17:20;102286.28;;;1.92;86.75
68230;BME280;55048;52.220;5.160;2023-01-26T06:19:49;102370.66;;;2.62;87.19
68230;BME280;55048;52.220;5.160;2023-01-26T06:22:15;102414.94;;;2.75;87.13
68230;BME280;55048;52.220;5.160;2023-01-26T06:24:45;102388.56;;;2.76;86.93
68230;BME280;55048;52.220;5.160;2023-01-26T06:27:12;102313.91;;;2.24;87.30
68230;BME280;55048;52.220;5.160;2023-01-26T06:29:39;102351.78;;;2.49;87.12
68230;BME280;55048;52.220;5.160;2023-01-26T06:32:06;102390.47;;;2.74;87.17
68230;BME280;55048;52.220;5.160;2023-01-26T06:34:31;102236.41;;;1.92;87.20
68230;BME280;55048;52.220;5.160;2023-01-26T06:36:58;102392.81;;;2.77;87.00
68230;BME280;55048;52.220;5.160;2023-01-26T06:39:28;102403.97;;;2.89;87.28
68230;BME280;55048;52.220;5.160;2023-01-26T06:41:54;102384.13;;;2.77;87.64
68230;BME280;55048;52.220;5.160;2023-01-26T06:44:19;102406.06;;;2.86;87.58
68230;BME280;55048;52.220;5.160;2023-01-26T06:46:45;102371.66;;;2.51;87.36
68230;BME280;55048;52.220;5.160;2023-01-26T06:49:10;102386.41;;;2.62;87.75
68230;BME280;55048;52.220;5.160;2023-01-26T06:54:11;102322.78;;;2.13;87.91
68230;BME280;55048;52.220;5.160;2023-01-26T06:56:55;102325.13;;;2.16;88.47
68230;BME280;55048;52.220;5.160;2023-01-26T06:59:55;102398.03;;;2.60;88.65
68230;BME280;55048;52.220;5.160;2023-01-26T07:02:41;102410.34;;;2.59;88.81
68230;BME280;55048;52.220;5.160;2023-01-26T07:05:07;102348.16;;;2.22;87.93
68230;BME280;55048;52.220;5.160;2023-01-26T07:07:33;102402.59;;;2.58;88.04
68230;BME280;55048;52.220;5.160;2023-01-26T07:09:58;102244.53;;;1.62;87.96
68230;BME280;55048;52.220;5.160;2023-01-26T07:12:23;102257.06;;;1.68;88.01
68230;BME280;55048;52.220;5.160;2023-01-26T07:14:49;102359.81;;;2.38;88.46
68230;BME280;55048;52.220;5.160;2023-01-26T07:17:16;102426.69;;;2.80;88.45
68230;BME280;55048;52.220;5.160;2023-01-26T07:19:42;102256.84;;;1.51;88.81
68230;BME280;55048;52.220;5.160;2023-01-26T07:22:07;102382.50;;;2.39;88.37
68230;BME280;55048;52.220;5.160;2023-01-26T07:24:32;102286.16;;;1.84;88.44
68230;BME280;55048;52.220;5.160;2023-01-26T07:26:58;102448.38;;;2.83;89.08
68230;BME280;55048;52.220;5.160;2023-01-26T07:29:23;102359.88;;;2.28;88.28
68230;BME280;55048;52.220;5.160;2023-01-26T07:31:49;102438.25;;;2.88;88.48
68230;BME280;55048;52.220;5.160;2023-01-26T07:34:15;102413.59;;;2.71;88.60
68230;BME280;55048;52.220;5.160;2023-01-26T07:36:40;102342.75;;;2.34;88.69
68230;BME280;55048;52.220;5.160;2023-01-26T07:39:06;102439.78;;;2.90;88.35
68230;BME280;55048;52.220;5.160;2023-01-26T07:41:31;102148.38;;;1.06;88.22
68230;BME280;55048;52.220;5.160;2023-01-26T07:43:57;102432.28;;;2.95;88.51
68230;BME280;55048;52.220;5.160;2023-01-26T07:46:22;102444.53;;;3.04;88.97
68230;BME280;55048;52.220;5.160;2023-01-26T07:48:49;102352.00;;;2.55;88.61
68230;BME280;55048;52.220;5.160;2023-01-26T07:51:14;102424.94;;;2.99;89.85
68230;BME280;55048;52.220;5.160;2023-01-26T07:53:40;102449.66;;;3.06;89.77
68230;BME280;55048;52.220;5.160;2023-01-26T07:56:12;102458.78;;;3.29;90.01
68230;BME280;55048;52.220;5.160;2023-01-26T07:58:38;102367.28;;;2.70;89.82
68230;BME280;55048;52.220;5.160;2023-01-26T08:01:09;102447.81;;;3.34;89.58
68230;BME280;55048;52.220;5.160;2023-01-26T08:03:35;102427.81;;;3.23;89.55
68230;BME280;55048;52.220;5.160;2023-01-26T08:06:01;102387.28;;;2.98;90.02
68230;BME280;55048;52.220;5.160;2023-01-26T08:08:26;102366.44;;;2.97;91.76
68230;BME280;55048;52.220;5.160;2023-01-26T08:10:55;102399.69;;;3.06;90.55
68230;BME280;55048;52.220;5.160;2023-01-26T08:13:21;102417.59;;;3.38;91.24
68230;BME280;55048;52.220;5.160;2023-01-26T08:15:47;102393.13;;;3.38;90.89
68230;BME280;55048;52.220;5.160;2023-01-26T08:18:12;102334.22;;;2.95;91.24
68230;BME280;55048;52.220;5.160;2023-01-26T08:20:38;102239.22;;;2.36;91.35
68230;BME280;55048;52.220;5.160;2023-01-26T08:23:03;102430.59;;;3.57;92.15
68230;BME280;55048;52.220;5.160;2023-01-26T08:25:29;102460.44;;;4.02;90.93
68230;BME280;55048;52.220;5.160;2023-01-26T08:27:55;102283.47;;;2.94;91.74
68230;BME280;55048;52.220;5.160;2023-01-26T08:30:21;102412.19;;;3.57;95.11
68230;BME280;55048;52.220;5.160;2023-01-26T08:32:46;102277.88;;;2.79;95.87
68230;BME280;55048;52.220;5.160;2023-01-26T08:35:11;102391.88;;;3.68;92.80
68230;BME280;55048;52.220;5.160;2023-01-26T08:37:37;102477.47;;;4.42;95.03
68230;BME280;55048;52.220;5.160;2023-01-26T08:40:03;102490.13;;;4.38;94.49
68230;BME280;55048;52.220;5.160;2023-01-26T08:42:29;102286.75;;;3.14;94.83
68230;BME280;55048;52.220;5.160;2023-01-26T08:44:54;102444.38;;;4.39;94.25
68230;BME280;55048;52.220;5.160;2023-01-26T08:47:20;102405.09;;;4.20;94.95
68230;BME280;55048;52.220;5.160;2023-01-26T08:49:45;102339.22;;;3.86;95.46
68230;BME280;55048;52.220;5.160;2023-01-26T08:52:10;102435.66;;;4.47;95.92
68230;BME280;55048;52.220;5.160;2023-01-26T08:54:36;102487.69;;;5.05;95.73
68230;BME280;55048;52.220;5.160;2023-01-26T08:57:01;102468.19;;;4.98;94.95
68230;BME280;55048;52.220;5.160;2023-01-26T08:59:26;102258.97;;;3.64;95.54
68230;BME280;55048;52.220;5.160;2023-01-26T09:01:52;102379.00;;;4.43;95.91
68230;BME280;55048;52.220;5.160;2023-01-26T09:04:17;102502.34;;;5.07;95.35
68230;BME280;55048;52.220;5.160;2023-01-26T09:06:42;102516.09;;;5.27;96.36
68230;BME280;55048;52.220;5.160;2023-01-26T09:09:08;102501.72;;;5.22;95.75
68230;BME280;55048;52.220;5.160;2023-01-26T09:11:38;102468.94;;;5.24;94.82
68230;BME280;55048;52.220;5.160;2023-01-26T09:14:03;102492.13;;;5.04;94.49
68230;BME280;55048;52.220;5.160;2023-01-26T09:16:28;102520.28;;;5.54;95.38
68230;BME280;55048;52.220;5.160;2023-01-26T09:18:54;102489.38;;;5.30;94.52
68230;BME280;55048;52.220;5.160;2023-01-26T09:21:20;102406.91;;;5.04;95.13
68230;BME280;55048;52.220;5.160;2023-01-26T09:23:48;102298.00;;;4.37;94.79
68230;BME280;55048;52.220;5.160;2023-01-26T09:26:13;102509.41;;;5.57;95.07
68230;BME280;55048;52.220;5.160;2023-01-26T09:28:38;102108.81;;;3.15;94.95
68230;BME280;55048;52.220;5.160;2023-01-26T09:31:06;102510.25;;;5.82;94.44
68230;BME280;55048;52.220;5.160;2023-01-26T09:33:33;102520.34;;;5.87;94.59
68230;BME280;55048;52.220;5.160;2023-01-26T09:36:07;102541.13;;;5.90;94.81
68230;BME280;55048;52.220;5.160;2023-01-26T09:38:33;102497.06;;;5.74;94.40
68230;BME280;55048;52.220;5.160;2023-01-26T09:41:06;102513.06;;;5.81;94.21
68230;BME280;55048;52.220;5.160;2023-01-26T09:43:52;102529.94;;;5.96;95.05
68230;BME280;55048;52.220;5.160;2023-01-26T09:46:31;102438.63;;;5.45;94.59
68230;BME280;55048;52.220;5.160;2023-01-26T09:49:15;102522.34;;;6.09;94.39
68230;BME280;55048;52.220;5.160;2023-01-26T09:51:48;102456.97;;;5.71;94.31
68230;BME280;55048;52.220;5.160;2023-01-26T09:54:37;102440.63;;;5.67;94.10
68230;BME280;55048;52.220;5.160;2023-01-26T09:57:11;102410.44;;;5.53;93.82
68230;BME280;55048;52.220;5.160;2023-01-26T09:59:52;102519.22;;;6.22;93.93
68230;BME280;55048;52.220;5.160;2023-01-26T10:05:36;102496.63;;;6.11;93.51
68230;BME280;55048;52.220;5.160;2023-01-26T10:08:10;102486.38;;;6.08;92.96
68230;BME280;55048;52.220;5.160;2023-01-26T10:10:40;102509.47;;;6.14;92.94
68230;BME280;55048;52.220;5.160;2023-01-26T10:13:12;102372.97;;;5.09;93.14
68230;BME280;55048;52.220;5.160;2023-01-26T10:15:40;102491.16;;;5.97;93.21
68230;BME280;55048;52.220;5.160;2023-01-26T10:18:20;102520.38;;;6.20;93.11
68230;BME280;55048;52.220;5.160;2023-01-26T10:20:49;102468.06;;;5.99;93.15
68230;BME280;55048;52.220;5.160;2023-01-26T10:23:20;102395.94;;;5.57;92.69
68230;BME280;55048;52.220;5.160;2023-01-26T10:25:48;102479.28;;;6.17;92.42
68230;BME280;55048;52.220;5.160;2023-01-26T10:30:43;102493.28;;;6.34;92.58
68230;BME280;55048;52.220;5.160;2023-01-26T10:33:30;102517.53;;;6.54;92.44
68230;BME280;55048;52.220;5.160;2023-01-26T10:36:01;102529.56;;;6.64;92.24
68230;BME280;55048;52.220;5.160;2023-01-26T10:41:06;102524.78;;;6.68;92.48
68230;BME280;55048;52.220;5.160;2023-01-26T10:43:36;102538.94;;;6.92;92.35
68230;BME280;55048;52.220;5.160;2023-01-26T10:46:05;102518.59;;;6.84;92.14
68230;BME280;55048;52.220;5.160;2023-01-26T10:48:30;102453.94;;;6.47;91.53
68230;BME280;55048;52.220;5.160;2023-01-26T10:51:13;102199.44;;;4.88;90.81
68230;BME280;55048;52.220;5.160;2023-01-26T10:53:39;102524.88;;;6.91;90.86
68230;BME280;55048;52.220;5.160;2023-01-26T10:56:14;102544.94;;;7.16;90.71
68230;BME280;55048;52.220;5.160;2023-01-26T10:58:53;102547.22;;;7.28;90.43
68230;BME280;55048;52.220;5.160;2023-01-26T11:01:20;102516.88;;;7.07;89.29
68230;BME280;55048;52.220;5.160;2023-01-26T11:04:03;102539.13;;;7.21;89.36
68230;BME280;55048;52.220;5.160;2023-01-26T11:06:29;102541.75;;;7.29;89.62
68230;BME280;55048;52.220;5.160;2023-01-26T11:09:28;102544.00;;;7.40;88.87
68230;BME280;55048;52.220;5.160;2023-01-26T11:12:01;102544.66;;;7.43;88.77
68230;BME280;55048;52.220;5.160;2023-01-26T11:14:28;102519.06;;;7.35;88.67
68230;BME280;55048;52.220;5.160;2023-01-26T11:20:01;102518.31;;;7.49;87.93
68230;BME280;55048;52.220;5.160;2023-01-26T11:25:34;102531.31;;;7.59;87.08
68230;BME280;55048;52.220;5.160;2023-01-26T11:33:24;102507.09;;;7.70;86.33
68230;BME280;55048;52.220;5.160;2023-01-26T11:35:59;102485.31;;;7.60;85.56
68230;BME280;55048;52.220;5.160;2023-01-26T11:38:55;102494.78;;;7.54;85.85
68230;BME280;55048;52.220;5.160;2023-01-26T11:47:33;102516.97;;;7.76;86.03
68230;BME280;55048;52.220;5.160;2023-01-26T11:50:16;102489.63;;;7.61;85.90
68230;BME280;55048;52.220;5.160;2023-01-26T11:58:26;102492.28;;;7.84;85.96
68230;BME280;55048;52.220;5.160;2023-01-26T12:00:56;102507.22;;;8.00;85.82
68230;BME280;55048;52.220;5.160;2023-01-26T12:03:47;102490.75;;;7.89;85.93
68230;BME280;55048;52.220;5.160;2023-01-26T12:06:17;102513.91;;;8.10;85.75
68230;BME280;55048;52.220;5.160;2023-01-26T12:08:59;102513.81;;;8.04;85.21
68230;BME280;55048;52.220;5.160;2023-01-26T12:11:39;102492.94;;;8.01;85.17
68230;BME280;55048;52.220;5.160;2023-01-26T12:22:02;102501.16;;;8.29;84.80
68230;BME280;55048;52.220;5.160;2023-01-26T12:24:40;102504.25;;;8.32;84.75
68230;BME280;55048;52.220;5.160;2023-01-26T12:27:15;102448.56;;;8.03;84.43
68230;BME280;55048;52.220;5.160;2023-01-26T12:30:01;102474.16;;;8.10;84.54
68230;BME280;55048;52.220;5.160;2023-01-26T12:32:29;102460.47;;;8.07;83.98
68230;BME280;55048;52.220;5.160;2023-01-26T12:34:54;102461.19;;;8.15;84.02
68230;BME280;55048;52.220;5.160;2023-01-26T12:37:32;102431.38;;;7.99;83.37
68230;BME280;55048;52.220;5.160;2023-01-26T12:40:24;102440.63;;;8.17;83.42
68230;BME280;55048;52.220;5.160;2023-01-26T12:43:19;102470.22;;;8.44;83.33
68230;BME280;55048;52.220;5.160;2023-01-26T12:45:50;102476.50;;;8.43;81.61
68230;BME280;55048;52.220;5.160;2023-01-26T12:48:28;102473.84;;;8.43;81.63
68230;BME280;55048;52.220;5.160;2023-01-26T12:51:04;102429.28;;;8.09;81.25
68230;BME280;55048;52.220;5.160;2023-01-26T12:54:07;102468.47;;;8.36;81.51
68230;BME280;55048;52.220;5.160;2023-01-26T12:56:42;102464.94;;;8.44;81.61
68230;BME280;55048;52.220;5.160;2023-01-26T12:59:38;102460.31;;;8.38;81.30
68230;BME280;55048;52.220;5.160;2023-01-26T13:02:21;102420.25;;;8.03;81.52
68230;BME280;55048;52.220;5.160;2023-01-26T13:04:50;102438.63;;;8.19;81.49
68230;BME280;55048;52.220;5.160;2023-01-26T13:07:38;102466.91;;;8.42;81.87
68230;BME280;55048;52.220;5.160;2023-01-26T13:15:27;102450.75;;;8.52;80.66
68230;BME280;55048;52.220;5.160;2023-01-26T13:18:03;102406.66;;;8.21;80.56
68230;BME280;55048;52.220;5.160;2023-01-26T13:21:01;102450.28;;;8.48;80.76
68230;BME280;55048;52.220;5.160;2023-01-26T13:28:43;102444.13;;;8.33;80.13
68230;BME280;55048;52.220;5.160;2023-01-26T13:31:10;102477.63;;;8.49;80.18
68230;BME280;55048;52.220;5.160;2023-01-26T13:33:36;102461.53;;;8.50;80.26
68230;BME280;55048;52.220;5.160;2023-01-26T13:36:03;102458.50;;;8.53;80.43
68230;BME280;55048;52.220;5.160;2023-01-26T13:38:38;102462.28;;;8.44;79.84
68230;BME280;55048;52.220;5.160;2023-01-26T13:41:14;102434.78;;;8.22;79.74
68230;BME280;55048;52.220;5.160;2023-01-26T13:43:54;102472.97;;;8.51;79.48
68230;BME280;55048;52.220;5.160;2023-01-26T13:46:25;102396.75;;;8.15;79.45
68230;BME280;55048;52.220;5.160;2023-01-26T13:48:55;102403.41;;;8.11;79.37
68230;BME280;55048;52.220;5.160;2023-01-26T13:51:23;102473.44;;;8.39;80.05
68230;BME280;55048;52.220;5.160;2023-01-26T13:54:09;102453.97;;;8.24;80.52
68230;BME280;55048;52.220;5.160;2023-01-26T13:56:38;102467.09;;;8.40;80.72
68230;BME280;55048;52.220;5.160;2023-01-26T13:59:16;102466.81;;;8.35;81.26
68230;BME280;55048;52.220;5.160;2023-01-26T14:01:50;102443.84;;;8.28;81.24
68230;BME280;55048;52.220;5.160;2023-01-26T14:04:20;102458.88;;;8.50;81.17
68230;BME280;55048;52.220;5.160;2023-01-26T14:09:27;102461.00;;;8.40;81.57
68230;BME280;55048;52.220;5.160;2023-01-26T14:12:00;102355.34;;;7.70;82.21
68230;BME280;55048;52.220;5.160;2023-01-26T14:14:28;102464.47;;;8.40;82.05
68230;BME280;55048;52.220;5.160;2023-01-26T14:16:58;102437.44;;;8.22;81.61
68230;BME280;55048;52.220;5.160;2023-01-26T14:19:26;102463.28;;;8.20;82.56
68230;BME280;55048;52.220;5.160;2023-01-26T14:21:57;102467.97;;;8.33;81.95